sensor_id;sensor_type;location;lat;lon;timestamp;pressure;altitude;pressure_sealevel;temperature
71897;BMP280;59767;51.344;12.362;2023-04-28T00:01:07;160694.66;;;8.02
71897;BMP280;59767;51.344;12.362;2023-04-28T00:04:11;160684.22;;;7.98
71897;BMP280;59767;51.344;12.362;2023-04-28T00:07:16;160685.53;;;7.98
71897;BMP280;59767;51.344;12.362;2023-04-28T00:10:20;160675.09;;;7.94
71897;BMP280;59767;51.344;12.362;2023-04-28T00:13:25;160647.63;;;7.84
71897;BMP280;59767;51.344;12.362;2023-04-28T00:16:29;160654.19;;;7.86
71897;BMP280;59767;51.344;12.362;2023-04-28T00:19:33;160642.38;;;7.82
71897;BMP280;59767;51.344;12.362;2023-04-28T00:22:37;160648.94;;;7.84
71897;BMP280;59767;51.344;12.362;2023-04-28T00:25:41;160609.72;;;7.69
71897;BMP280;59767;51.344;12.362;2023-04-28T00:28:45;160616.28;;;7.72
71897;BMP280;59767;51.344;12.362;2023-04-28T00:31:49;160628.06;;;7.76
71897;BMP280;59767;51.344;12.362;2023-04-28T00:34:54;160604.56;;;7.67
71897;BMP280;59767;51.344;12.362;2023-04-28T00:37:58;160579.69;;;7.58
71897;BMP280;59767;51.344;12.362;2023-04-28T00:41:03;160575.81;;;7.56
71897;BMP280;59767;51.344;12.362;2023-04-28T00:44:06;160586.22;;;7.60
71897;BMP280;59767;51.344;12.362;2023-04-28T00:47:11;160558.81;;;7.50
71897;BMP280;59767;51.344;12.362;2023-04-28T00:50:15;160557.47;;;7.49
71897;BMP280;59767;51.344;12.362;2023-04-28T00:53:19;160552.25;;;7.47
71897;BMP280;59767;51.344;12.362;2023-04-28T00:56:24;160549.63;;;7.46
71897;BMP280;59767;51.344;12.362;2023-04-28T00:59:30;160518.31;;;7.34
71897;BMP280;59767;51.344;12.362;2023-04-28T01:02:35;160523.50;;;7.36
71897;BMP280;59767;51.344;12.362;2023-04-28T01:05:39;160543.13;;;7.44
71897;BMP280;59767;51.344;12.362;2023-04-28T01:08:47;160520.91;;;7.35
71897;BMP280;59767;51.344;12.362;2023-04-28T01:11:51;160544.44;;;7.44
71897;BMP280;59767;51.344;12.362;2023-04-28T01:14:55;160536.59;;;7.41
71897;BMP280;59767;51.344;12.362;2023-04-28T01:18:02;160520.91;;;7.35
71897;BMP280;59767;51.344;12.362;2023-04-28T01:21:06;160515.72;;;7.33
71897;BMP280;59767;51.344;12.362;2023-04-28T01:24:10;160522.19;;;7.36
71897;BMP280;59767;51.344;12.362;2023-04-28T01:27:14;160520.91;;;7.35
71897;BMP280;59767;51.344;12.362;2023-04-28T01:30:19;160510.47;;;7.31
71897;BMP280;59767;51.344;12.362;2023-04-28T01:33:23;160500.03;;;7.27
71897;BMP280;59767;51.344;12.362;2023-04-28T01:36:28;160507.88;;;7.30
71897;BMP280;59767;51.344;12.362;2023-04-28T01:39:32;160532.69;;;7.40
71897;BMP280;59767;51.344;12.362;2023-04-28T01:42:38;160532.69;;;7.40
71897;BMP280;59767;51.344;12.362;2023-04-28T01:45:42;160536.59;;;7.41
71897;BMP280;59767;51.344;12.362;2023-04-28T01:48:46;160541.84;;;7.43
71897;BMP280;59767;51.344;12.362;2023-04-28T01:51:50;160543.13;;;7.44
71897;BMP280;59767;51.344;12.362;2023-04-28T01:54:55;160575.81;;;7.56
71897;BMP280;59767;51.344;12.362;2023-04-28T01:58:00;160586.22;;;7.60
71897;BMP280;59767;51.344;12.362;2023-04-28T02:01:04;160580.97;;;7.58
71897;BMP280;59767;51.344;12.362;2023-04-28T02:04:08;160592.75;;;7.63
71897;BMP280;59767;51.344;12.362;2023-04-28T02:07:12;160583.63;;;7.59
71897;BMP280;59767;51.344;12.362;2023-04-28T02:10:16;160588.81;;;7.61
71897;BMP280;59767;51.344;12.362;2023-04-28T02:13:20;160573.19;;;7.55
71897;BMP280;59767;51.344;12.362;2023-04-28T02:16:24;160580.97;;;7.58
71897;BMP280;59767;51.344;12.362;2023-04-28T02:19:28;160575.81;;;7.56
71897;BMP280;59767;51.344;12.362;2023-04-28T02:22:32;160558.81;;;7.50
71897;BMP280;59767;51.344;12.362;2023-04-28T02:25:36;160543.13;;;7.44
71897;BMP280;59767;51.344;12.362;2023-04-28T02:28:40;160552.25;;;7.47
71897;BMP280;59767;51.344;12.362;2023-04-28T02:31:44;160552.25;;;7.47
71897;BMP280;59767;51.344;12.362;2023-04-28T02:34:53;160553.56;;;7.48
71897;BMP280;59767;51.344;12.362;2023-04-28T02:37:57;160522.19;;;7.36
71897;BMP280;59767;51.344;12.362;2023-04-28T02:41:03;160526.16;;;7.37
71897;BMP280;59767;51.344;12.362;2023-04-28T02:44:08;160509.19;;;7.31
71897;BMP280;59767;51.344;12.362;2023-04-28T02:47:12;160519.63;;;7.35
71897;BMP280;59767;51.344;12.362;2023-04-28T02:50:15;160518.31;;;7.34
71897;BMP280;59767;51.344;12.362;2023-04-28T02:53:20;160532.69;;;7.40
71897;BMP280;59767;51.344;12.362;2023-04-28T02:56:24;160548.38;;;7.46
71897;BMP280;59767;51.344;12.362;2023-04-28T02:59:29;160535.28;;;7.41
71897;BMP280;59767;51.344;12.362;2023-04-28T03:02:33;160558.81;;;7.50
71897;BMP280;59767;51.344;12.362;2023-04-28T03:05:37;160566.66;;;7.53
71897;BMP280;59767;51.344;12.362;2023-04-28T03:08:41;160591.47;;;7.62
71897;BMP280;59767;51.344;12.362;2023-04-28T03:11:45;160591.47;;;7.62
71897;BMP280;59767;51.344;12.362;2023-04-28T03:14:50;160601.91;;;7.66
71897;BMP280;59767;51.344;12.362;2023-04-28T03:17:53;160583.63;;;7.59
71897;BMP280;59767;51.344;12.362;2023-04-28T03:20:58;160578.44;;;7.57
71897;BMP280;59767;51.344;12.362;2023-04-28T03:24:02;160587.53;;;7.61
71897;BMP280;59767;51.344;12.362;2023-04-28T03:27:15;160556.16;;;7.49
71897;BMP280;59767;51.344;12.362;2023-04-28T03:30:19;160557.47;;;7.49
71897;BMP280;59767;51.344;12.362;2023-04-28T03:33:24;160552.25;;;7.47
71897;BMP280;59767;51.344;12.362;2023-04-28T03:36:28;160567.94;;;7.53
71897;BMP280;59767;51.344;12.362;2023-04-28T03:39:32;160586.22;;;7.60
71897;BMP280;59767;51.344;12.362;2023-04-28T03:42:36;160575.81;;;7.56
71897;BMP280;59767;51.344;12.362;2023-04-28T03:45:40;160564.00;;;7.52
71897;BMP280;59767;51.344;12.362;2023-04-28T03:48:44;160558.81;;;7.50
71897;BMP280;59767;51.344;12.362;2023-04-28T03:51:49;160562.72;;;7.51
71897;BMP280;59767;51.344;12.362;2023-04-28T03:54:54;160558.81;;;7.50
71897;BMP280;59767;51.344;12.362;2023-04-28T03:57:58;160574.50;;;7.56
71897;BMP280;59767;51.344;12.362;2023-04-28T04:01:02;160549.63;;;7.46
71897;BMP280;59767;51.344;12.362;2023-04-28T04:04:06;160547.03;;;7.45
71897;BMP280;59767;51.344;12.362;2023-04-28T04:07:11;160553.56;;;7.48
71897;BMP280;59767;51.344;12.362;2023-04-28T04:10:16;160574.50;;;7.56
71897;BMP280;59767;51.344;12.362;2023-04-28T04:13:21;160580.97;;;7.58
71897;BMP280;59767;51.344;12.362;2023-04-28T04:16:25;160583.63;;;7.59
71897;BMP280;59767;51.344;12.362;2023-04-28T04:19:29;160646.28;;;7.83
71897;BMP280;59767;51.344;12.362;2023-04-28T04:22:33;160647.63;;;7.84
71897;BMP280;59767;51.344;12.362;2023-04-28T04:25:37;160651.53;;;7.85
71897;BMP280;59767;51.344;12.362;2023-04-28T04:28:41;160643.69;;;7.82
71897;BMP280;59767;51.344;12.362;2023-04-28T04:31:45;160660.72;;;7.89
71897;BMP280;59767;51.344;12.362;2023-04-28T04:34:50;160646.28;;;7.83
71897;BMP280;59767;51.344;12.362;2023-04-28T04:37:54;160677.69;;;7.95
71897;BMP280;59767;51.344;12.362;2023-04-28T04:40:58;160659.41;;;7.88
71897;BMP280;59767;51.344;12.362;2023-04-28T04:44:02;160664.59;;;7.90
71897;BMP280;59767;51.344;12.362;2023-04-28T04:47:07;160711.69;;;8.08
71897;BMP280;59767;51.344;12.362;2023-04-28T04:50:11;160694.66;;;8.02
71897;BMP280;59767;51.344;12.362;2023-04-28T04:53:15;160680.28;;;7.96
71897;BMP280;59767;51.344;12.362;2023-04-28T04:56:19;160712.97;;;8.09
71897;BMP280;59767;51.344;12.362;2023-04-28T04:59:23;160680.28;;;7.96
71897;BMP280;59767;51.344;12.362;2023-04-28T05:02:28;160710.38;;;8.08
71897;BMP280;59767;51.344;12.362;2023-04-28T05:05:31;160737.78;;;8.18
71897;BMP280;59767;51.344;12.362;2023-04-28T05:08:36;160752.16;;;8.24
71897;BMP280;59767;51.344;12.362;2023-04-28T05:11:40;160779.56;;;8.34
71897;BMP280;59767;51.344;12.362;2023-04-28T05:14:44;160752.16;;;8.24
71897;BMP280;59767;51.344;12.362;2023-04-28T05:17:48;160795.34;;;8.40
71897;BMP280;59767;51.344;12.362;2023-04-28T05:20:52;160826.63;;;8.52
71897;BMP280;59767;51.344;12.362;2023-04-28T05:23:56;160837.09;;;8.56
71897;BMP280;59767;51.344;12.362;2023-04-28T05:27:00;160881.56;;;8.73
71897;BMP280;59767;51.344;12.362;2023-04-28T05:30:08;160920.78;;;8.88
71897;BMP280;59767;51.344;12.362;2023-04-28T05:33:13;160956.06;;;9.02
71897;BMP280;59767;51.344;12.362;2023-04-28T05:36:18;160953.41;;;9.01
71897;BMP280;59767;51.344;12.362;2023-04-28T05:39:22;160952.13;;;9.01
71897;BMP280;59767;51.344;12.362;2023-04-28T05:42:26;160979.56;;;9.11
71897;BMP280;59767;51.344;12.362;2023-04-28T05:45:30;160986.09;;;9.14
71897;BMP280;59767;51.344;12.362;2023-04-28T05:48:34;161044.97;;;9.36
71897;BMP280;59767;51.344;12.362;2023-04-28T05:51:38;161044.97;;;9.36
71897;BMP280;59767;51.344;12.362;2023-04-28T05:54:43;161067.22;;;9.45
71897;BMP280;59767;51.344;12.362;2023-04-28T05:57:47;161044.97;;;9.36
71897;BMP280;59767;51.344;12.362;2023-04-28T06:00:56;161084.22;;;9.51
71897;BMP280;59767;51.344;12.362;2023-04-28T06:04:00;161154.84;;;9.78
71897;BMP280;59767;51.344;12.362;2023-04-28T06:07:05;161161.31;;;9.81
71897;BMP280;59767;51.344;12.362;2023-04-28T06:10:09;161251.53;;;10.15
71897;BMP280;59767;51.344;12.362;2023-04-28T06:13:13;161300.00;;;10.34
71897;BMP280;59767;51.344;12.362;2023-04-28T06:16:18;161290.84;;;10.30
71897;BMP280;59767;51.344;12.362;2023-04-28T06:19:22;161313.06;;;10.39
71897;BMP280;59767;51.344;12.362;2023-04-28T06:22:26;161344.47;;;10.51
71897;BMP280;59767;51.344;12.362;2023-04-28T06:25:31;161373.25;;;10.62
71897;BMP280;59767;51.344;12.362;2023-04-28T06:28:35;161433.47;;;10.85
71897;BMP280;59767;51.344;12.362;2023-04-28T06:31:39;161408.59;;;10.75
71897;BMP280;59767;51.344;12.362;2023-04-28T06:34:43;161458.28;;;10.94
71897;BMP280;59767;51.344;12.362;2023-04-28T06:37:47;161446.50;;;10.90
71897;BMP280;59767;51.344;12.362;2023-04-28T06:40:52;161404.66;;;10.74
71897;BMP280;59767;51.344;12.362;2023-04-28T06:43:56;161433.47;;;10.85
71897;BMP280;59767;51.344;12.362;2023-04-28T06:47:00;161485.75;;;11.05
71897;BMP280;59767;51.344;12.362;2023-04-28T06:50:05;161438.63;;;10.87
71897;BMP280;59767;51.344;12.362;2023-04-28T06:53:09;161488.38;;;11.06
71897;BMP280;59767;51.344;12.362;2023-04-28T06:56:14;161539.41;;;11.25
71897;BMP280;59767;51.344;12.362;2023-04-28T06:59:18;161549.94;;;11.29
71897;BMP280;59767;51.344;12.362;2023-04-28T07:02:22;161621.84;;;11.57
71897;BMP280;59767;51.344;12.362;2023-04-28T07:05:26;161620.53;;;11.56
71897;BMP280;59767;51.344;12.362;2023-04-28T07:08:31;161645.41;;;11.66
71897;BMP280;59767;51.344;12.362;2023-04-28T07:11:36;161727.91;;;11.97
71897;BMP280;59767;51.344;12.362;2023-04-28T07:14:40;161763.22;;;12.11
71897;BMP280;59767;51.344;12.362;2023-04-28T07:17:44;161739.69;;;12.02
71897;BMP280;59767;51.344;12.362;2023-04-28T07:20:48;161754.06;;;12.07
71897;BMP280;59767;51.344;12.362;2023-04-28T07:23:53;161754.06;;;12.07
71897;BMP280;59767;51.344;12.362;2023-04-28T07:26:59;161799.88;;;12.25
71897;BMP280;59767;51.344;12.362;2023-04-28T07:30:05;161820.81;;;12.33
71897;BMP280;59767;51.344;12.362;2023-04-28T07:33:28;161786.78;;;12.20
71897;BMP280;59767;51.344;12.362;2023-04-28T07:36:33;161793.38;;;12.22
71897;BMP280;59767;51.344;12.362;2023-04-28T07:39:37;161941.28;;;12.79
71897;BMP280;59767;51.344;12.362;2023-04-28T07:42:43;161993.72;;;12.99
71897;BMP280;59767;51.344;12.362;2023-04-28T07:45:47;162132.53;;;13.52
71897;BMP280;59767;51.344;12.362;2023-04-28T07:48:52;162175.78;;;13.68
71897;BMP280;59767;51.344;12.362;2023-04-28T07:51:57;162177.06;;;13.69
71897;BMP280;59767;51.344;12.362;2023-04-28T07:55:01;162234.78;;;13.91
71897;BMP280;59767;51.344;12.362;2023-04-28T07:58:07;162203.31;;;13.79
71897;BMP280;59767;51.344;12.362;2023-04-28T08:01:11;162343.50;;;14.32
71897;BMP280;59767;51.344;12.362;2023-04-28T08:04:15;162399.88;;;14.54
71897;BMP280;59767;51.344;12.362;2023-04-28T08:07:20;162368.38;;;14.42
71897;BMP280;59767;51.344;12.362;2023-04-28T08:10:25;162357.94;;;14.38
71897;BMP280;59767;51.344;12.362;2023-04-28T08:13:29;162300.25;;;14.16
71897;BMP280;59767;51.344;12.362;2023-04-28T08:16:33;162318.56;;;14.23
71897;BMP280;59767;51.344;12.362;2023-04-28T08:19:41;162376.22;;;14.45
71897;BMP280;59767;51.344;12.362;2023-04-28T08:22:45;162347.41;;;14.34
71897;BMP280;59767;51.344;12.362;2023-04-28T08:25:49;162356.59;;;14.37
71897;BMP280;59767;51.344;12.362;2023-04-28T08:28:54;162386.75;;;14.49
71897;BMP280;59767;51.344;12.362;2023-04-28T08:31:58;162431.31;;;14.66
71897;BMP280;59767;51.344;12.362;2023-04-28T08:35:02;162399.88;;;14.54
71897;BMP280;59767;51.344;12.362;2023-04-28T08:38:07;162460.13;;;14.77
71897;BMP280;59767;51.344;12.362;2023-04-28T08:41:16;162406.44;;;14.56
71897;BMP280;59767;51.344;12.362;2023-04-28T08:44:22;162376.22;;;14.45
71897;BMP280;59767;51.344;12.362;2023-04-28T08:47:34;162376.22;;;14.45
71897;BMP280;59767;51.344;12.362;2023-04-28T08:50:39;162416.91;;;14.60
71897;BMP280;59767;51.344;12.362;2023-04-28T08:53:49;162428.69;;;14.65
71897;BMP280;59767;51.344;12.362;2023-04-28T08:57:14;162367.09;;;14.41
71897;BMP280;59767;51.344;12.362;2023-04-28T09:00:18;162389.38;;;14.50
71897;BMP280;59767;51.344;12.362;2023-04-28T09:03:23;162410.31;;;14.58
71897;BMP280;59767;51.344;12.362;2023-04-28T09:09:36;162295.03;;;14.14
71897;BMP280;59767;51.344;12.362;2023-04-28T09:12:43;162258.34;;;14.00
71897;BMP280;59767;51.344;12.362;2023-04-28T09:15:47;162238.69;;;13.92
71897;BMP280;59767;51.344;12.362;2023-04-28T09:18:56;162297.66;;;14.15
71897;BMP280;59767;51.344;12.362;2023-04-28T09:22:01;162298.97;;;14.15
71897;BMP280;59767;51.344;12.362;2023-04-28T09:25:26;162268.78;;;14.04
71897;BMP280;59767;51.344;12.362;2023-04-28T09:28:31;162308.13;;;14.19
71897;BMP280;59767;51.344;12.362;2023-04-28T09:31:35;162279.31;;;14.08
71897;BMP280;59767;51.344;12.362;2023-04-28T09:34:48;162288.47;;;14.11
71897;BMP280;59767;51.344;12.362;2023-04-28T09:37:57;162389.38;;;14.50
71897;BMP280;59767;51.344;12.362;2023-04-28T09:41:02;162378.88;;;14.46
71897;BMP280;59767;51.344;12.362;2023-04-28T09:44:13;162371.06;;;14.43
71897;BMP280;59767;51.344;12.362;2023-04-28T09:47:19;162330.41;;;14.27
71897;BMP280;59767;51.344;12.362;2023-04-28T09:50:39;162241.28;;;13.93
71897;BMP280;59767;51.344;12.362;2023-04-28T09:53:42;162242.63;;;13.94
71897;BMP280;59767;51.344;12.362;2023-04-28T09:56:47;162281.94;;;14.09
71897;BMP280;59767;51.344;12.362;2023-04-28T09:59:52;162325.19;;;14.25
71897;BMP280;59767;51.344;12.362;2023-04-28T10:02:57;162333.00;;;14.28
71897;BMP280;59767;51.344;12.362;2023-04-28T10:06:03;162319.91;;;14.23
71897;BMP280;59767;51.344;12.362;2023-04-28T10:09:08;162279.31;;;14.08
71897;BMP280;59767;51.344;12.362;2023-04-28T10:12:16;162281.94;;;14.09
71897;BMP280;59767;51.344;12.362;2023-04-28T10:15:22;162283.25;;;14.09
71897;BMP280;59767;51.344;12.362;2023-04-28T10:18:27;162334.34;;;14.29
71897;BMP280;59767;51.344;12.362;2023-04-28T10:21:34;162314.69;;;14.21
71897;BMP280;59767;51.344;12.362;2023-04-28T10:28:15;162257.00;;;13.99
71897;BMP280;59767;51.344;12.362;2023-04-28T10:31:20;162335.63;;;14.29
71897;BMP280;59767;51.344;12.362;2023-04-28T10:34:25;162403.81;;;14.55
71897;BMP280;59767;51.344;12.362;2023-04-28T10:38:11;162447.03;;;14.72
71897;BMP280;59767;51.344;12.362;2023-04-28T10:41:30;162441.81;;;14.70
71897;BMP280;59767;51.344;12.362;2023-04-28T10:47:59;162403.81;;;14.55
71897;BMP280;59767;51.344;12.362;2023-04-28T10:54:13;162423.44;;;14.63
71897;BMP280;59767;51.344;12.362;2023-04-28T10:57:19;162407.72;;;14.57
71897;BMP280;59767;51.344;12.362;2023-04-28T11:00:28;162335.63;;;14.29
71897;BMP280;59767;51.344;12.362;2023-04-28T11:07:09;162237.34;;;13.92
71897;BMP280;59767;51.344;12.362;2023-04-28T11:10:15;162183.66;;;13.71
71897;BMP280;59767;51.344;12.362;2023-04-28T11:13:26;162140.38;;;13.55
71897;BMP280;59767;51.344;12.362;2023-04-28T11:16:31;162115.50;;;13.45
71897;BMP280;59767;51.344;12.362;2023-04-28T11:19:42;162116.84;;;13.46
71897;BMP280;59767;51.344;12.362;2023-04-28T11:22:51;162105.06;;;13.41
71897;BMP280;59767;51.344;12.362;2023-04-28T11:25:55;162124.66;;;13.49
71897;BMP280;59767;51.344;12.362;2023-04-28T11:29:00;162169.25;;;13.66
71897;BMP280;59767;51.344;12.362;2023-04-28T11:32:07;162181.00;;;13.70
71897;BMP280;59767;51.344;12.362;2023-04-28T11:35:12;162226.84;;;13.88
71897;BMP280;59767;51.344;12.362;2023-04-28T11:38:16;162229.53;;;13.89
71897;BMP280;59767;51.344;12.362;2023-04-28T11:41:21;162203.31;;;13.79
71897;BMP280;59767;51.344;12.362;2023-04-28T11:44:27;162208.53;;;13.81
71897;BMP280;59767;51.344;12.362;2023-04-28T11:47:33;162175.78;;;13.68
71897;BMP280;59767;51.344;12.362;2023-04-28T11:50:37;162204.66;;;13.79
71897;BMP280;59767;51.344;12.362;2023-04-28T11:53:43;162253.06;;;13.98
71897;BMP280;59767;51.344;12.362;2023-04-28T11:56:47;162295.03;;;14.14
71897;BMP280;59767;51.344;12.362;2023-04-28T11:59:51;162327.78;;;14.26
71897;BMP280;59767;51.344;12.362;2023-04-28T12:02:56;162399.88;;;14.54
71897;BMP280;59767;51.344;12.362;2023-04-28T12:06:01;162445.75;;;14.71
71897;BMP280;59767;51.344;12.362;2023-04-28T12:09:15;162490.31;;;14.88
71897;BMP280;59767;51.344;12.362;2023-04-28T12:12:29;162572.84;;;15.20
71897;BMP280;59767;51.344;12.362;2023-04-28T12:15:48;162627.94;;;15.41
71897;BMP280;59767;51.344;12.362;2023-04-28T12:18:59;162686.94;;;15.63
71897;BMP280;59767;51.344;12.362;2023-04-28T12:22:05;162738.09;;;15.83
71897;BMP280;59767;51.344;12.362;2023-04-28T12:25:11;162744.66;;;15.85
71897;BMP280;59767;51.344;12.362;2023-04-28T12:28:16;162753.88;;;15.89
71897;BMP280;59767;51.344;12.362;2023-04-28T12:31:20;162829.88;;;16.18
71897;BMP280;59767;51.344;12.362;2023-04-28T12:34:24;162840.38;;;16.22
71897;BMP280;59767;51.344;12.362;2023-04-28T12:37:28;162801.03;;;16.07
71897;BMP280;59767;51.344;12.362;2023-04-28T12:40:33;162822.03;;;16.15
71897;BMP280;59767;51.344;12.362;2023-04-28T12:43:37;162778.78;;;15.98
71897;BMP280;59767;51.344;12.362;2023-04-28T12:46:41;162761.72;;;15.92
71897;BMP280;59767;51.344;12.362;2023-04-28T12:49:45;162690.88;;;15.65
71897;BMP280;59767;51.344;12.362;2023-04-28T12:52:50;162684.28;;;15.62
71897;BMP280;59767;51.344;12.362;2023-04-28T12:55:54;162666.00;;;15.55
71897;BMP280;59767;51.344;12.362;2023-04-28T12:58:59;162690.88;;;15.65
71897;BMP280;59767;51.344;12.362;2023-04-28T13:02:07;162778.78;;;15.98
71897;BMP280;59767;51.344;12.362;2023-04-28T13:05:11;162816.81;;;16.13
71897;BMP280;59767;51.344;12.362;2023-04-28T13:08:17;162745.97;;;15.86
71897;BMP280;59767;51.344;12.362;2023-04-28T13:11:21;162777.44;;;15.98
71897;BMP280;59767;51.344;12.362;2023-04-28T13:14:27;162741.97;;;15.84
71897;BMP280;59767;51.344;12.362;2023-04-28T13:17:31;162743.31;;;15.85
71897;BMP280;59767;51.344;12.362;2023-04-28T13:20:36;162715.78;;;15.74
71897;BMP280;59767;51.344;12.362;2023-04-28T13:23:40;162671.22;;;15.57
71897;BMP280;59767;51.344;12.362;2023-04-28T13:26:45;162663.34;;;15.54
71897;BMP280;59767;51.344;12.362;2023-04-28T13:29:50;162650.25;;;15.49
71897;BMP280;59767;51.344;12.362;2023-04-28T13:32:54;162630.53;;;15.42
71897;BMP280;59767;51.344;12.362;2023-04-28T13:36:00;162663.34;;;15.54
71897;BMP280;59767;51.344;12.362;2023-04-28T13:39:04;162662.06;;;15.54
71897;BMP280;59767;51.344;12.362;2023-04-28T13:42:09;162656.78;;;15.52
71897;BMP280;59767;51.344;12.362;2023-04-28T13:45:16;162704.00;;;15.70
71897;BMP280;59767;51.344;12.362;2023-04-28T13:48:21;162713.13;;;15.73
71897;BMP280;59767;51.344;12.362;2023-04-28T13:51:25;162669.94;;;15.57
71897;BMP280;59767;51.344;12.362;2023-04-28T13:54:29;162648.94;;;15.49
71897;BMP280;59767;51.344;12.362;2023-04-28T13:57:34;162648.94;;;15.49
71897;BMP280;59767;51.344;12.362;2023-04-28T14:00:38;162622.69;;;15.39
71897;BMP280;59767;51.344;12.362;2023-04-28T14:03:42;162680.41;;;15.61
71897;BMP280;59767;51.344;12.362;2023-04-28T14:06:47;162686.94;;;15.63
71897;BMP280;59767;51.344;12.362;2023-04-28T14:09:53;162634.50;;;15.43
71897;BMP280;59767;51.344;12.362;2023-04-28T14:12:58;162635.81;;;15.44
71897;BMP280;59767;51.344;12.362;2023-04-28T14:16:02;162617.44;;;15.37
71897;BMP280;59767;51.344;12.362;2023-04-28T14:19:08;162621.41;;;15.38
71897;BMP280;59767;51.344;12.362;2023-04-28T14:22:12;162626.66;;;15.40
71897;BMP280;59767;51.344;12.362;2023-04-28T14:25:16;162648.94;;;15.49
71897;BMP280;59767;51.344;12.362;2023-04-28T14:28:21;162654.22;;;15.51
71897;BMP280;59767;51.344;12.362;2023-04-28T14:31:26;162646.31;;;15.48
71897;BMP280;59767;51.344;12.362;2023-04-28T14:34:31;162668.59;;;15.56
71897;BMP280;59767;51.344;12.362;2023-04-28T14:37:35;162662.06;;;15.54
71897;BMP280;59767;51.344;12.362;2023-04-28T14:40:39;162656.78;;;15.52
71897;BMP280;59767;51.344;12.362;2023-04-28T14:43:46;162672.50;;;15.58
71897;BMP280;59767;51.344;12.362;2023-04-28T14:46:51;162690.88;;;15.65
71897;BMP280;59767;51.344;12.362;2023-04-28T14:49:56;162696.16;;;15.67
71897;BMP280;59767;51.344;12.362;2023-04-28T14:53:01;162696.16;;;15.67
71897;BMP280;59767;51.344;12.362;2023-04-28T14:56:09;162723.69;;;15.77
71897;BMP280;59767;51.344;12.362;2023-04-28T14:59:21;162683.06;;;15.62
71897;BMP280;59767;51.344;12.362;2023-04-28T15:02:26;162616.16;;;15.36
71897;BMP280;59767;51.344;12.362;2023-04-28T15:05:32;162614.81;;;15.36
71897;BMP280;59767;51.344;12.362;2023-04-28T15:08:36;162585.97;;;15.25
71897;BMP280;59767;51.344;12.362;2023-04-28T15:11:42;162582.09;;;15.23
71897;BMP280;59767;51.344;12.362;2023-04-28T15:14:46;162562.41;;;15.16
71897;BMP280;59767;51.344;12.362;2023-04-28T15:17:51;162580.75;;;15.23
71897;BMP280;59767;51.344;12.362;2023-04-28T15:20:55;162583.41;;;15.24
71897;BMP280;59767;51.344;12.362;2023-04-28T15:24:00;162571.53;;;15.19
71897;BMP280;59767;51.344;12.362;2023-04-28T15:27:04;162559.75;;;15.15
71897;BMP280;59767;51.344;12.362;2023-04-28T15:30:08;162541.41;;;15.08
71897;BMP280;59767;51.344;12.362;2023-04-28T15:33:13;162520.47;;;15.00
71897;BMP280;59767;51.344;12.362;2023-04-28T15:36:20;162488.97;;;14.88
71897;BMP280;59767;51.344;12.362;2023-04-28T15:39:24;162483.75;;;14.86
71897;BMP280;59767;51.344;12.362;2023-04-28T15:42:31;162471.91;;;14.81
71897;BMP280;59767;51.344;12.362;2023-04-28T15:45:35;162491.63;;;14.89
71897;BMP280;59767;51.344;12.362;2023-04-28T15:48:44;162483.75;;;14.86
71897;BMP280;59767;51.344;12.362;2023-04-28T15:51:48;162482.41;;;14.85
71897;BMP280;59767;51.344;12.362;2023-04-28T15:54:54;162494.25;;;14.90
71897;BMP280;59767;51.344;12.362;2023-04-28T15:57:59;162508.69;;;14.95
71897;BMP280;59767;51.344;12.362;2023-04-28T16:01:04;162494.25;;;14.90
71897;BMP280;59767;51.344;12.362;2023-04-28T16:04:08;162471.91;;;14.81
71897;BMP280;59767;51.344;12.362;2023-04-28T16:07:12;162454.91;;;14.75
71897;BMP280;59767;51.344;12.362;2023-04-28T16:10:16;162454.91;;;14.75
71897;BMP280;59767;51.344;12.362;2023-04-28T16:13:20;162475.91;;;14.83
71897;BMP280;59767;51.344;12.362;2023-04-28T16:16:24;162445.75;;;14.71
71897;BMP280;59767;51.344;12.362;2023-04-28T16:19:31;162437.88;;;14.68
71897;BMP280;59767;51.344;12.362;2023-04-28T16:22:36;162441.81;;;14.70
71897;BMP280;59767;51.344;12.362;2023-04-28T16:25:40;162423.44;;;14.63
71897;BMP280;59767;51.344;12.362;2023-04-28T16:28:44;162415.59;;;14.60
71897;BMP280;59767;51.344;12.362;2023-04-28T16:31:49;162412.97;;;14.59
71897;BMP280;59767;51.344;12.362;2023-04-28T16:34:56;162410.31;;;14.58
71897;BMP280;59767;51.344;12.362;2023-04-28T16:38:01;162397.22;;;14.53
71897;BMP280;59767;51.344;12.362;2023-04-28T16:41:05;162393.25;;;14.51
71897;BMP280;59767;51.344;12.362;2023-04-28T16:44:09;162393.25;;;14.51
71897;BMP280;59767;51.344;12.362;2023-04-28T16:47:14;162389.38;;;14.50
71897;BMP280;59767;51.344;12.362;2023-04-28T16:50:18;162360.56;;;14.39
71897;BMP280;59767;51.344;12.362;2023-04-28T16:53:22;162344.84;;;14.33
71897;BMP280;59767;51.344;12.362;2023-04-28T16:56:29;162329.13;;;14.27
71897;BMP280;59767;51.344;12.362;2023-04-28T16:59:35;162363.16;;;14.40
71897;BMP280;59767;51.344;12.362;2023-04-28T17:02:39;162339.56;;;14.31
71897;BMP280;59767;51.344;12.362;2023-04-28T17:05:43;162329.13;;;14.27
71897;BMP280;59767;51.344;12.362;2023-04-28T17:08:51;162342.22;;;14.32
71897;BMP280;59767;51.344;12.362;2023-04-28T17:11:55;162333.00;;;14.28
71897;BMP280;59767;51.344;12.362;2023-04-28T17:14:59;162326.47;;;14.26
71897;BMP280;59767;51.344;12.362;2023-04-28T17:18:03;162285.81;;;14.10
71897;BMP280;59767;51.344;12.362;2023-04-28T17:21:07;162287.16;;;14.11
71897;BMP280;59767;51.344;12.362;2023-04-28T17:24:11;162289.75;;;14.12
71897;BMP280;59767;51.344;12.362;2023-04-28T17:27:15;162279.31;;;14.08
71897;BMP280;59767;51.344;12.362;2023-04-28T17:30:20;162271.44;;;14.05
71897;BMP280;59767;51.344;12.362;2023-04-28T17:33:24;162249.16;;;13.96
71897;BMP280;59767;51.344;12.362;2023-04-28T17:36:28;162278.00;;;14.07
71897;BMP280;59767;51.344;12.362;2023-04-28T17:39:33;162263.59;;;14.02